createdAt,value
2022-11-20T00:01:22.193Z,28.75
2022-11-20T00:03:49.329Z,31.63
2022-11-20T00:06:19.063Z,31.88
2022-11-20T00:08:46.639Z,28.27
2022-11-20T00:11:16.690Z,29.10
2022-11-20T00:13:44.670Z,30.90
2022-11-20T00:16:13.543Z,29.67
2022-11-20T00:18:40.183Z,31.90
2022-11-20T00:21:15.001Z,30.52
2022-11-20T00:23:42.463Z,38.05
2022-11-20T00:26:12.288Z,29.27
2022-11-20T00:28:38.832Z,28.20
2022-11-20T00:31:07.357Z,29.77
2022-11-20T00:33:34.337Z,28.20
2022-11-20T00:36:04.883Z,27.63
2022-11-20T00:38:32.506Z,30.70
2022-11-20T00:41:01.380Z,27.70
2022-11-20T00:43:28.576Z,28.38
2022-11-20T00:46:02.924Z,29.52
2022-11-20T00:48:29.668Z,31.05
2022-11-20T00:50:56.640Z,29.50
2022-11-20T00:53:23.814Z,35.87
2022-11-20T00:56:01.124Z,30.00
2022-11-20T00:58:32.154Z,28.75
2022-11-20T01:01:06.662Z,27.73
2022-11-20T01:03:34.369Z,31.38
2022-11-20T01:06:05.839Z,30.57
2022-11-20T01:08:33.389Z,27.95
2022-11-20T01:11:03.787Z,29.90
2022-11-20T01:13:40.406Z,31.05
2022-11-20T01:16:15.267Z,33.53
2022-11-20T01:18:44.912Z,35.17
2022-11-20T01:21:17.643Z,30.67
2022-11-20T01:23:45.754Z,40.78
2022-11-20T01:26:17.230Z,33.22
2022-11-20T01:28:43.861Z,34.70
2022-11-20T01:31:16.356Z,38.07
2022-11-20T01:33:44.223Z,33.35
2022-11-20T01:36:11.959Z,37.22
2022-11-20T01:38:39.340Z,38.25
2022-11-20T01:41:06.856Z,36.80
2022-11-20T01:43:33.723Z,37.93
2022-11-20T01:46:18.854Z,38.40
2022-11-20T01:49:00.199Z,34.75
2022-11-20T01:51:49.495Z,34.20
2022-11-20T01:54:24.126Z,33.65
2022-11-20T01:56:55.266Z,34.27
2022-11-20T01:59:25.320Z,39.95
2022-11-20T02:01:52.027Z,34.63
2022-11-20T02:04:19.353Z,38.55
2022-11-20T02:06:51.653Z,46.75
2022-11-20T02:09:18.393Z,36.07
2022-11-20T02:11:44.978Z,42.65
2022-11-20T02:14:11.920Z,40.15
2022-11-20T02:16:44.774Z,41.47
2022-11-20T02:19:24.449Z,49.78
2022-11-20T02:22:15.620Z,45.87
2022-11-20T02:24:44.884Z,40.50
2022-11-20T02:27:14.316Z,46.60
2022-11-20T02:30:03.292Z,49.10
2022-11-20T02:32:32.815Z,48.63
2022-11-20T02:35:06.938Z,58.50
2022-11-20T02:37:37.323Z,48.30
2022-11-20T02:40:04.815Z,51.10
2022-11-20T02:42:31.321Z,48.10
2022-11-20T02:44:57.812Z,46.20
2022-11-20T02:47:24.381Z,47.20
2022-11-20T02:49:50.873Z,49.53
2022-11-20T02:52:17.418Z,49.65
2022-11-20T02:54:43.928Z,51.53
2022-11-20T02:57:10.414Z,50.55
2022-11-20T02:59:36.932Z,48.00
2022-11-20T03:02:03.454Z,53.05
2022-11-20T03:04:30.026Z,52.85
2022-11-20T03:06:56.616Z,44.67
2022-11-20T03:09:23.471Z,43.50
2022-11-20T03:11:50.195Z,45.23
2022-11-20T03:14:16.851Z,45.92
2022-11-20T03:16:43.418Z,45.78
2022-11-20T03:19:10.259Z,43.10
2022-11-20T03:21:36.939Z,39.42
2022-11-20T03:24:04.312Z,41.10
2022-11-20T03:26:31.286Z,43.97
2022-11-20T03:29:00.396Z,47.50
2022-11-20T03:31:33.040Z,45.38
2022-11-20T03:34:00.648Z,55.42
2022-11-20T03:36:28.703Z,68.93
2022-11-20T03:38:56.552Z,69.63
2022-11-20T03:41:27.950Z,57.38
2022-11-20T03:43:56.723Z,69.57
2022-11-20T03:46:23.944Z,67.13
2022-11-20T03:48:52.204Z,69.77
2022-11-20T03:51:21.653Z,72.25
2022-11-20T03:53:49.912Z,67.68
2022-11-20T03:56:18.608Z,68.43
2022-11-20T03:58:45.240Z,76.45
2022-11-20T04:01:14.488Z,63.87
2022-11-20T04:03:42.632Z,64.55
2022-11-20T04:06:18.286Z,74.07
2022-11-20T04:08:48.504Z,79.78
2022-11-20T04:11:20.928Z,77.93
2022-11-20T04:13:51.838Z,87.60
2022-11-20T04:16:19.151Z,91.78
2022-11-20T04:18:45.956Z,99.00
2022-11-20T04:21:12.885Z,91.68
2022-11-20T04:23:40.061Z,100.57
2022-11-20T04:26:09.589Z,84.27
2022-11-20T04:28:37.027Z,90.63
2022-11-20T04:31:08.939Z,90.97
2022-11-20T04:33:36.394Z,89.80
2022-11-20T04:36:17.149Z,106.78
2022-11-20T04:38:44.324Z,118.87
2022-11-20T04:41:21.217Z,108.20
2022-11-20T04:43:51.609Z,98.75
2022-11-20T04:46:19.607Z,98.15
2022-11-20T04:48:46.475Z,111.75
2022-11-20T04:51:13.460Z,106.70
2022-11-20T04:53:40.588Z,101.97
2022-11-20T04:56:09.402Z,115.97
2022-11-20T04:58:35.977Z,108.90
2022-11-20T05:01:13.292Z,111.30
2022-11-20T05:03:42.640Z,100.27
2022-11-20T05:06:11.054Z,94.82
2022-11-20T05:08:37.712Z,98.80
2022-11-20T05:11:09.846Z,101.55
2022-11-20T05:13:36.910Z,100.15
2022-11-20T05:16:06.179Z,99.20
2022-11-20T05:18:33.772Z,100.72
2022-11-20T05:21:00.378Z,90.07
2022-11-20T05:23:27.522Z,101.25
2022-11-20T05:25:59.523Z,88.40
2022-11-20T05:28:27.961Z,88.27
2022-11-20T05:30:54.563Z,102.10
2022-11-20T05:33:21.812Z,100.63
2022-11-20T05:35:49.426Z,98.68
2022-11-20T05:38:16.315Z,103.03
2022-11-20T05:40:42.851Z,97.27
2022-11-20T05:43:09.327Z,87.68
2022-11-20T05:45:36.134Z,110.32
2022-11-20T05:48:02.667Z,91.63
2022-11-20T05:50:29.313Z,104.03
2022-11-20T05:52:56.131Z,94.27
2022-11-20T05:55:22.693Z,98.13
2022-11-20T05:57:49.198Z,103.28
2022-11-20T06:00:16.317Z,101.20
2022-11-20T06:02:42.866Z,105.25
2022-11-20T06:05:09.638Z,94.37
2022-11-20T06:07:36.256Z,96.97
2022-11-20T06:10:03.107Z,97.93
2022-11-20T06:12:29.626Z,110.10
2022-11-20T06:14:56.096Z,101.05
2022-11-20T06:17:22.673Z,85.93
2022-11-20T06:19:49.153Z,108.38
2022-11-20T06:22:15.677Z,91.00
2022-11-20T06:24:42.267Z,89.88
2022-11-20T06:27:08.758Z,111.20
2022-11-20T06:29:35.750Z,106.33
2022-11-20T06:32:02.623Z,98.95
2022-11-20T06:34:29.157Z,80.35
2022-11-20T06:36:55.670Z,103.93
2022-11-20T06:39:22.513Z,88.15
2022-11-20T06:41:49.564Z,96.07
2022-11-20T06:44:17.134Z,94.55
2022-11-20T06:46:43.615Z,97.82
2022-11-20T06:49:10.317Z,102.55
2022-11-20T06:51:37.089Z,93.90
2022-11-20T06:54:03.988Z,94.23
2022-11-20T06:56:30.496Z,91.82
2022-11-20T06:58:57.056Z,82.38
2022-11-20T07:01:23.558Z,82.38
2022-11-20T07:03:54.375Z,91.95
2022-11-20T07:06:21.066Z,92.17
2022-11-20T07:08:48.084Z,100.45
2022-11-20T07:11:14.910Z,114.50
2022-11-20T07:13:41.439Z,106.28
2022-11-20T07:16:09.255Z,100.80
2022-11-20T07:18:36.494Z,84.33
2022-11-20T07:21:05.195Z,92.63
2022-11-20T07:23:32.120Z,86.38
2022-11-20T07:25:58.955Z,86.97
2022-11-20T07:28:25.567Z,69.72
2022-11-20T07:30:53.247Z,69.10
2022-11-20T07:33:20.764Z,70.65
2022-11-20T07:35:47.292Z,85.40
2022-11-20T07:38:13.839Z,84.75
2022-11-20T07:40:40.516Z,83.82
2022-11-20T07:43:07.402Z,83.57
2022-11-20T07:45:33.985Z,84.13
2022-11-20T07:48:00.472Z,73.10
2022-11-20T07:50:27.017Z,82.78
2022-11-20T07:52:53.724Z,80.30
2022-11-20T07:55:20.250Z,90.50
2022-11-20T07:57:46.778Z,87.30
2022-11-20T08:00:14.023Z,77.65
2022-11-20T08:02:41.958Z,91.70
2022-11-20T08:05:10.610Z,75.72
2022-11-20T08:07:41.395Z,75.63
2022-11-20T08:10:09.429Z,79.72
2022-11-20T08:12:54.690Z,83.78
2022-11-20T08:15:21.674Z,78.00
2022-11-20T08:18:08.444Z,82.10
2022-11-20T08:20:35.870Z,82.80
2022-11-20T08:23:04.879Z,75.57
2022-11-20T08:25:32.256Z,69.53
2022-11-20T08:28:00.587Z,64.75
2022-11-20T08:30:28.642Z,60.78
2022-11-20T08:32:56.175Z,61.57
2022-11-20T08:35:23.058Z,66.05
2022-11-20T08:37:49.942Z,61.60
2022-11-20T08:40:19.619Z,62.55
2022-11-20T08:42:52.726Z,61.42
2022-11-20T08:45:20.025Z,54.43
2022-11-20T08:47:47.241Z,56.67
2022-11-20T08:50:16.231Z,56.15
2022-11-20T08:52:42.803Z,60.35
2022-11-20T08:55:10.046Z,52.85
2022-11-20T08:57:37.861Z,57.97
2022-11-20T09:00:07.116Z,63.67
2022-11-20T09:02:34.004Z,56.70
2022-11-20T09:05:00.596Z,61.10
2022-11-20T09:07:27.140Z,60.92
2022-11-20T09:10:16.550Z,58.03
2022-11-20T09:12:40.160Z,55.40
2022-11-20T09:15:07.173Z,62.50
2022-11-20T09:17:33.781Z,61.70
2022-11-20T09:20:00.306Z,58.67
2022-11-20T09:22:26.864Z,57.90
2022-11-20T09:24:53.431Z,73.05
2022-11-20T09:27:23.196Z,62.72
2022-11-20T09:29:49.737Z,67.95
2022-11-20T09:32:16.418Z,65.57
2022-11-20T09:34:42.899Z,58.17
2022-11-20T09:37:09.455Z,60.33
2022-11-20T09:39:40.298Z,59.05
2022-11-20T09:42:22.483Z,63.80
2022-11-20T09:44:54.968Z,49.63
2022-11-20T09:47:56.200Z,65.13
2022-11-20T09:50:53.817Z,55.33
2022-11-20T09:53:36.069Z,68.20
2022-11-20T09:56:04.565Z,60.75
2022-11-20T09:58:40.532Z,66.90
2022-11-20T10:01:30.262Z,56.77
2022-11-20T10:04:07.068Z,59.88
2022-11-20T10:06:40.680Z,52.67
2022-11-20T10:09:20.077Z,56.60
2022-11-20T10:11:52.689Z,53.20
2022-11-20T10:14:58.622Z,49.77
2022-11-20T10:21:39.600Z,50.40
2022-11-20T10:24:28.428Z,40.92
2022-11-20T10:27:10.112Z,51.72
2022-11-20T10:29:43.911Z,58.07
2022-11-20T10:32:17.467Z,45.65
2022-11-20T10:35:05.055Z,50.55
2022-11-20T10:37:35.945Z,50.53
2022-11-20T10:40:21.103Z,48.70
2022-11-20T10:42:52.839Z,47.67
2022-11-20T10:45:35.785Z,35.15
2022-11-20T10:48:08.465Z,48.03
2022-11-20T10:50:41.231Z,53.70
2022-11-20T10:53:44.287Z,48.72
2022-11-20T10:56:39.956Z,51.30
2022-11-20T10:59:24.559Z,51.45
2022-11-20T11:01:51.215Z,42.50
2022-11-20T11:04:41.944Z,45.92
2022-11-20T11:07:16.271Z,39.78
2022-11-20T11:09:49.188Z,37.43
2022-11-20T11:12:15.899Z,43.20
2022-11-20T11:14:44.179Z,45.15
2022-11-20T11:17:22.519Z,43.75
2022-11-20T11:20:19.804Z,45.53
2022-11-20T11:22:52.136Z,41.23
2022-11-20T11:25:36.148Z,44.63
2022-11-20T11:28:19.218Z,42.22
2022-11-20T11:30:46.592Z,44.83
2022-11-20T11:33:21.270Z,38.05
2022-11-20T11:35:59.260Z,44.73
2022-11-20T11:38:37.279Z,41.38
2022-11-20T11:41:05.565Z,36.55
2022-11-20T11:43:56.520Z,37.67
2022-11-20T11:46:31.683Z,36.78
2022-11-20T11:49:00.031Z,30.10
2022-11-20T11:51:39.359Z,28.48
2022-11-20T11:54:17.597Z,21.27
2022-11-20T11:56:45.223Z,27.42
2022-11-20T11:59:18.582Z,32.08
2022-11-20T12:01:54.255Z,27.93
2022-11-20T12:04:59.924Z,31.42
2022-11-20T12:07:48.361Z,21.95
2022-11-20T12:10:23.591Z,28.95
2022-11-20T12:13:01.931Z,31.02
2022-11-20T12:15:34.097Z,28.70
2022-11-20T12:18:01.663Z,29.20
2022-11-20T12:20:36.405Z,24.27
2022-11-20T12:23:15.388Z,24.95
2022-11-20T12:25:47.339Z,27.10
2022-11-20T12:28:38.144Z,26.53
2022-11-20T12:31:23.319Z,23.17
2022-11-20T12:34:03.935Z,26.15
2022-11-20T12:36:48.430Z,28.00
2022-11-20T12:39:41.880Z,23.05
2022-11-20T12:42:43.104Z,21.67
2022-11-20T12:45:33.976Z,27.13
2022-11-20T12:48:43.547Z,20.73
2022-11-20T12:51:37.005Z,18.95
2022-11-20T12:54:25.327Z,22.30
2022-11-20T12:57:26.989Z,24.07
2022-11-20T13:00:11.984Z,25.55
2022-11-20T13:02:51.942Z,18.35
2022-11-20T13:05:42.975Z,19.10
2022-11-20T13:08:17.886Z,13.13
2022-11-20T13:11:04.374Z,20.57
2022-11-20T13:13:30.885Z,18.33
2022-11-20T13:16:05.865Z,12.43
2022-11-20T13:18:40.709Z,16.38
2022-11-20T13:21:36.055Z,14.75
2022-11-20T13:24:24.615Z,15.27
2022-11-20T13:27:14.720Z,14.75
2022-11-20T13:29:45.297Z,18.15
2022-11-20T13:32:18.785Z,18.85
2022-11-20T13:35:02.721Z,12.63
2022-11-20T13:37:38.130Z,14.53
2022-11-20T13:40:12.080Z,11.05
2022-11-20T13:42:45.759Z,7.60
2022-11-20T13:45:35.252Z,9.75
2022-11-20T13:48:22.292Z,6.13
2022-11-20T13:51:04.472Z,7.93
2022-11-20T13:54:08.436Z,7.10
2022-11-20T13:56:53.031Z,10.00
2022-11-20T13:59:25.593Z,8.13
2022-11-20T14:01:52.259Z,8.70
2022-11-20T14:04:34.038Z,6.73
2022-11-20T14:07:00.885Z,16.63
2022-11-20T14:09:34.916Z,7.55
2022-11-20T14:12:03.965Z,9.10
2022-11-20T14:14:34.107Z,11.23
2022-11-20T14:17:23.839Z,7.90
2022-11-20T14:19:55.085Z,6.75
2022-11-20T14:22:24.263Z,7.32
2022-11-20T14:25:22.348Z,7.50
2022-11-20T14:27:53.148Z,7.85
2022-11-20T14:30:24.513Z,10.10
2022-11-20T14:32:52.621Z,6.55
2022-11-20T14:35:25.841Z,6.43
2022-11-20T14:37:55.770Z,8.43
2022-11-20T14:40:26.870Z,12.45
2022-11-20T14:42:54.157Z,13.93
2022-11-20T14:45:22.376Z,8.07
2022-11-20T14:47:50.007Z,7.38
2022-11-20T14:50:23.906Z,7.03
2022-11-20T14:52:55.858Z,8.98
2022-11-20T14:55:30.056Z,6.70
2022-11-20T14:58:07.885Z,6.93
2022-11-20T15:00:35.720Z,10.85
2022-11-20T15:03:02.472Z,11.63
2022-11-20T15:05:49.761Z,12.00
2022-11-20T15:08:17.433Z,15.63
2022-11-20T15:10:51.614Z,16.75
2022-11-20T15:13:37.983Z,29.95
2022-11-20T15:16:16.936Z,18.27
2022-11-20T15:18:43.879Z,14.68
2022-11-20T15:21:13.030Z,7.77
2022-11-20T15:23:39.533Z,10.63
2022-11-20T15:26:07.572Z,14.88
2022-11-20T15:28:37.077Z,16.08
2022-11-20T15:31:05.293Z,18.02
2022-11-20T15:33:33.406Z,11.83
2022-11-20T15:36:00.873Z,9.73
2022-11-20T15:38:27.602Z,10.82
2022-11-20T15:40:54.477Z,13.70
2022-11-20T15:43:21.343Z,11.80
2022-11-20T15:45:52.454Z,11.00
2022-11-20T15:48:23.865Z,11.02
2022-11-20T15:51:22.965Z,13.90
2022-11-20T15:53:49.682Z,10.07
2022-11-20T15:56:16.698Z,11.93
2022-11-20T15:58:43.639Z,13.47
2022-11-20T16:01:16.373Z,14.18
2022-11-20T16:03:44.468Z,11.18
2022-11-20T16:06:11.421Z,8.98
2022-11-20T16:08:38.525Z,12.10
2022-11-20T16:11:05.552Z,12.27
2022-11-20T16:13:52.044Z,14.35
2022-11-20T16:16:34.128Z,15.45
2022-11-20T16:19:01.360Z,16.50
2022-11-20T16:21:32.022Z,11.75
2022-11-20T16:24:04.126Z,16.90
2022-11-20T16:26:31.083Z,12.63
2022-11-20T16:29:00.142Z,14.98
2022-11-20T16:31:27.713Z,11.55
2022-11-20T16:33:56.716Z,10.13
2022-11-20T16:36:25.510Z,11.50
2022-11-20T16:38:58.278Z,12.10
2022-11-20T16:41:26.755Z,16.80
2022-11-20T16:44:01.333Z,21.35
2022-11-20T16:46:32.530Z,15.32
2022-11-20T16:49:06.164Z,18.00
2022-11-20T16:51:36.142Z,12.05
2022-11-20T16:54:04.776Z,13.50
2022-11-20T16:56:31.359Z,12.43
2022-11-20T16:58:59.738Z,10.70
2022-11-20T17:01:28.897Z,12.70
2022-11-20T17:04:01.569Z,10.52
2022-11-20T17:06:30.757Z,14.45
2022-11-20T17:08:57.919Z,14.30
2022-11-20T17:11:26.724Z,17.52
2022-11-20T17:13:55.056Z,11.37
2022-11-20T17:16:23.170Z,16.92
2022-11-20T17:18:52.868Z,19.27
2022-11-20T17:21:19.836Z,13.75
2022-11-20T17:23:47.243Z,18.50
2022-11-20T17:26:17.813Z,12.37
2022-11-20T17:28:47.628Z,14.13
2022-11-20T17:31:16.756Z,11.68
2022-11-20T17:33:45.654Z,11.68
2022-11-20T17:36:15.471Z,11.40
2022-11-20T17:38:42.731Z,16.43
2022-11-20T17:41:13.366Z,14.68
2022-11-20T17:43:40.332Z,15.80
2022-11-20T17:46:12.107Z,14.20
2022-11-20T17:48:42.875Z,10.32
2022-11-20T17:51:11.411Z,11.97
2022-11-20T17:53:40.945Z,14.48
2022-11-20T17:56:25.910Z,9.20
2022-11-20T17:58:52.493Z,11.82
2022-11-20T18:01:19.299Z,9.35
2022-11-20T18:03:46.535Z,14.53
2022-11-20T18:06:19.320Z,11.48
2022-11-20T18:08:46.395Z,13.90
2022-11-20T18:11:17.116Z,10.68
2022-11-20T18:14:04.460Z,16.58
2022-11-20T18:16:35.960Z,12.30
2022-11-20T18:19:02.639Z,14.85
2022-11-20T18:21:30.069Z,15.45
2022-11-20T18:24:00.172Z,14.82
2022-11-20T18:26:27.150Z,19.73
2022-11-20T18:28:54.370Z,10.93
2022-11-20T18:31:21.403Z,11.10
2022-11-20T18:33:48.003Z,14.35
2022-11-20T18:36:20.986Z,13.32
2022-11-20T18:38:50.360Z,10.85
2022-11-20T18:41:38.834Z,11.83
2022-11-20T18:44:30.421Z,11.95
2022-11-20T18:46:57.316Z,13.55
2022-11-20T18:49:23.945Z,14.70
2022-11-20T18:51:50.487Z,10.77
2022-11-20T18:54:17.202Z,17.47
2022-11-20T18:56:43.908Z,10.90
2022-11-20T18:59:11.366Z,12.45
2022-11-20T19:01:38.367Z,11.45
2022-11-20T19:04:09.495Z,9.02
2022-11-20T19:06:37.249Z,9.43
2022-11-20T19:09:11.668Z,15.48
2022-11-20T19:11:40.082Z,11.38
2022-11-20T19:14:07.340Z,9.13
2022-11-20T19:16:34.642Z,12.23
2022-11-20T19:19:03.472Z,13.83
2022-11-20T19:21:30.650Z,12.75
2022-11-20T19:23:59.586Z,14.23
2022-11-20T19:26:26.644Z,11.02
2022-11-20T19:28:53.835Z,10.65
2022-11-20T19:31:27.062Z,7.83
2022-11-20T19:33:58.887Z,12.95
2022-11-20T19:36:28.389Z,18.92
2022-11-20T19:38:55.522Z,9.07
2022-11-20T19:41:29.062Z,18.25
2022-11-20T19:44:01.546Z,12.00
2022-11-20T19:46:29.761Z,12.25
2022-11-20T19:48:57.492Z,10.13
2022-11-20T19:51:26.324Z,10.25
2022-11-20T19:53:55.666Z,15.07
2022-11-20T19:56:22.526Z,16.05
2022-11-20T19:58:49.048Z,21.95
2022-11-20T20:01:18.659Z,14.90
2022-11-20T20:03:46.589Z,14.10
2022-11-20T20:06:18.716Z,14.07
2022-11-20T20:08:45.517Z,15.73
2022-11-20T20:11:17.532Z,11.40
2022-11-20T20:13:45.168Z,16.17
2022-11-20T20:16:13.767Z,12.27
2022-11-20T20:18:40.377Z,7.03
2022-11-20T20:21:09.204Z,7.72
2022-11-20T20:23:36.272Z,15.80
2022-11-20T20:26:04.950Z,9.27
2022-11-20T20:28:32.429Z,12.70
2022-11-20T20:31:09.745Z,13.67
2022-11-20T20:33:38.377Z,11.23
2022-11-20T20:36:13.787Z,9.02
2022-11-20T20:38:40.441Z,9.52
2022-11-20T20:41:06.969Z,11.93
2022-11-20T20:43:53.571Z,10.30
2022-11-20T20:46:20.479Z,13.32
2022-11-20T20:48:51.501Z,16.88
2022-11-20T20:51:20.864Z,11.98
2022-11-20T20:53:47.792Z,10.75
2022-11-20T20:56:14.534Z,9.77
2022-11-20T20:58:44.451Z,12.40
2022-11-20T21:01:13.639Z,12.38
2022-11-20T21:03:40.672Z,13.52
2022-11-20T21:06:09.916Z,11.40
2022-11-20T21:08:40.439Z,9.87
2022-11-20T21:11:11.987Z,11.25
2022-11-20T21:13:40.071Z,10.50
2022-11-20T21:16:07.156Z,9.65
2022-11-20T21:18:34.479Z,13.77
2022-11-20T21:21:22.944Z,11.83
2022-11-20T21:23:49.471Z,8.50
2022-11-20T21:26:16.338Z,7.53
2022-11-20T21:28:43.313Z,9.70
2022-11-20T21:31:10.989Z,7.05
2022-11-20T21:33:44.232Z,8.73
2022-11-20T21:36:13.683Z,13.95
2022-11-20T21:38:40.599Z,9.57
2022-11-20T21:41:09.575Z,10.88
2022-11-20T21:43:36.177Z,12.18
2022-11-20T21:46:04.940Z,10.10
2022-11-20T21:48:32.360Z,12.20
2022-11-20T21:51:07.245Z,13.80
2022-11-20T21:53:34.277Z,16.17
2022-11-20T21:56:01.262Z,9.93
2022-11-20T21:58:28.335Z,8.52
2022-11-20T22:00:55.125Z,9.63
2022-11-20T22:03:22.457Z,9.23
2022-11-20T22:05:59.158Z,6.55
2022-11-20T22:08:26.605Z,13.57
2022-11-20T22:10:55.216Z,8.90
2022-11-20T22:13:41.310Z,10.48
2022-11-20T22:16:08.361Z,14.98
2022-11-20T22:18:35.498Z,10.23
2022-11-20T22:21:07.856Z,11.07
2022-11-20T22:23:35.061Z,8.73
2022-11-20T22:26:09.503Z,12.65
2022-11-20T22:28:36.892Z,17.27
2022-11-20T22:31:06.198Z,13.95
2022-11-20T22:33:33.962Z,9.80
2022-11-20T22:36:14.747Z,9.50
2022-11-20T22:38:41.954Z,10.40
2022-11-20T22:41:22.822Z,9.88
2022-11-20T22:43:54.741Z,11.98
2022-11-20T22:46:21.239Z,12.82
2022-11-20T22:48:53.268Z,11.45
2022-11-20T22:51:22.080Z,7.20
2022-11-20T22:53:49.400Z,10.35
2022-11-20T22:56:17.389Z,12.00
2022-11-20T22:58:46.187Z,18.20
2022-11-20T23:01:15.523Z,9.10
2022-11-20T23:03:44.418Z,10.95
2022-11-20T23:06:12.151Z,14.20
2022-11-20T23:08:40.157Z,14.63
2022-11-20T23:11:09.534Z,7.55
2022-11-20T23:13:37.179Z,9.20
2022-11-20T23:16:06.499Z,13.20
2022-11-20T23:18:33.900Z,13.38
2022-11-20T23:21:08.324Z,10.32
2022-11-20T23:23:35.013Z,14.80
2022-11-20T23:26:05.286Z,8.25
2022-11-20T23:28:31.862Z,13.18
2022-11-20T23:30:58.599Z,15.15
2022-11-20T23:33:25.285Z,14.75
2022-11-20T23:35:52.121Z,8.73
2022-11-20T23:38:19.127Z,10.25
2022-11-20T23:40:52.057Z,9.55
2022-11-20T23:43:21.435Z,14.27
2022-11-20T23:45:55.735Z,8.55
2022-11-20T23:48:25.099Z,8.45
2022-11-20T23:50:51.611Z,9.55
2022-11-20T23:53:18.914Z,7.82
2022-11-20T23:55:47.616Z,11.20
2022-11-20T23:58:14.326Z,14.60
